createdAt,value
2017-12-06T00:01:06.746Z,27.23
2017-12-06T00:03:33.898Z,16.70
2017-12-06T00:06:00.332Z,15.57
2017-12-06T00:08:26.774Z,15.50
2017-12-06T00:10:53.158Z,15.83
2017-12-06T00:13:19.535Z,11.10
2017-12-06T00:15:45.969Z,17.57
2017-12-06T00:18:12.403Z,16.93
2017-12-06T00:20:39.674Z,20.20
2017-12-06T00:23:06.091Z,20.63
2017-12-06T00:25:32.463Z,17.13
2017-12-06T00:27:58.794Z,18.10
2017-12-06T00:30:25.174Z,19.10
2017-12-06T00:32:51.527Z,19.43
2017-12-06T00:35:17.957Z,17.47
2017-12-06T00:37:45.005Z,16.20
2017-12-06T00:40:11.440Z,15.60
2017-12-06T00:42:37.875Z,16.17
2017-12-06T00:45:04.250Z,15.30
2017-12-06T00:47:30.641Z,17.03
2017-12-06T00:49:57.178Z,16.13
2017-12-06T00:52:23.715Z,18.97
2017-12-06T00:54:50.662Z,16.63
2017-12-06T00:57:17.179Z,15.97
2017-12-06T00:59:43.633Z,13.93
2017-12-06T01:02:09.968Z,14.10
2017-12-06T01:04:36.443Z,16.70
2017-12-06T01:07:02.834Z,14.17
2017-12-06T01:09:29.315Z,16.93
2017-12-06T01:11:56.441Z,14.87
2017-12-06T01:14:22.855Z,16.57
2017-12-06T01:16:49.290Z,19.50
2017-12-06T01:19:15.724Z,14.50
2017-12-06T01:21:42.159Z,15.63
2017-12-06T01:24:08.593Z,14.47
2017-12-06T01:26:35.029Z,16.73
2017-12-06T01:29:02.078Z,14.90
2017-12-06T01:31:28.511Z,13.83
2017-12-06T01:33:54.842Z,16.80
2017-12-06T01:36:21.279Z,15.75
2017-12-06T01:38:47.712Z,15.27
2017-12-06T01:41:14.186Z,16.73
2017-12-06T01:43:40.582Z,15.17
2017-12-06T01:46:07.834Z,14.83
2017-12-06T01:48:34.269Z,17.80
2017-12-06T01:51:00.638Z,12.90
2017-12-06T01:53:27.140Z,11.97
2017-12-06T01:55:53.575Z,14.30
2017-12-06T01:58:20.008Z,13.90
2017-12-06T02:00:46.462Z,14.23
2017-12-06T02:03:13.696Z,16.93
2017-12-06T02:05:40.130Z,14.47
2017-12-06T02:08:06.565Z,13.53
2017-12-06T02:10:33.000Z,13.23
2017-12-06T02:12:59.439Z,16.97
2017-12-06T02:15:25.801Z,15.07
2017-12-06T02:17:52.201Z,13.97
2017-12-06T02:20:19.310Z,16.00
2017-12-06T02:22:45.775Z,15.80
2017-12-06T02:25:12.188Z,15.43
2017-12-06T02:27:38.554Z,12.70
2017-12-06T02:30:04.988Z,11.60
2017-12-06T02:32:31.443Z,11.47
2017-12-06T02:34:57.857Z,10.90
2017-12-06T02:37:25.111Z,12.60
2017-12-06T02:39:51.546Z,11.67
2017-12-06T02:42:17.954Z,13.60
2017-12-06T02:44:44.395Z,13.37
2017-12-06T02:47:10.838Z,13.30
2017-12-06T02:49:37.284Z,15.20
2017-12-06T02:52:03.718Z,33.87
2017-12-06T02:54:30.880Z,26.60
2017-12-06T02:56:57.284Z,19.50
2017-12-06T02:59:23.722Z,19.60
2017-12-06T03:04:21.335Z,20.70
2017-12-06T03:06:47.756Z,22.00
2017-12-06T03:09:14.189Z,17.17
2017-12-06T03:11:40.621Z,20.20
2017-12-06T03:14:06.954Z,15.30
2017-12-06T03:16:33.321Z,15.63
2017-12-06T03:18:59.720Z,17.50
2017-12-06T03:21:26.979Z,15.43
2017-12-06T03:23:53.342Z,16.90
2017-12-06T03:26:19.763Z,17.70
2017-12-06T03:28:46.150Z,13.53
2017-12-06T03:31:12.593Z,12.70
2017-12-06T03:33:39.046Z,16.87
2017-12-06T03:36:05.479Z,15.87
2017-12-06T03:38:32.720Z,16.80
2017-12-06T03:40:59.168Z,15.60
2017-12-06T03:43:25.601Z,12.47
2017-12-06T03:45:52.018Z,13.80
2017-12-06T03:48:18.575Z,13.30
2017-12-06T03:50:45.030Z,15.77
2017-12-06T03:53:11.420Z,16.00
2017-12-06T03:55:38.696Z,15.53
2017-12-06T03:58:05.151Z,13.17
2017-12-06T04:00:31.567Z,12.67
2017-12-06T04:02:58.002Z,12.87
2017-12-06T04:05:24.464Z,12.00
2017-12-06T04:07:50.871Z,12.13
2017-12-06T04:10:17.296Z,12.67
2017-12-06T04:12:44.430Z,12.97
2017-12-06T04:15:10.889Z,15.10
2017-12-06T04:17:37.262Z,16.27
2017-12-06T04:20:03.759Z,12.97
2017-12-06T04:22:30.213Z,14.90
2017-12-06T04:24:56.628Z,13.10
2017-12-06T04:27:23.062Z,14.73
2017-12-06T04:29:50.214Z,12.10
2017-12-06T04:32:16.750Z,11.17
2017-12-06T04:34:43.186Z,13.00
2017-12-06T04:37:09.517Z,21.40
2017-12-06T04:39:35.892Z,23.50
2017-12-06T04:42:02.284Z,25.20
2017-12-06T04:44:28.700Z,27.13
2017-12-06T04:46:55.842Z,22.90
2017-12-06T04:49:22.311Z,21.50
2017-12-06T04:51:48.674Z,22.70
2017-12-06T04:54:15.043Z,25.23
2017-12-06T04:56:41.506Z,26.77
2017-12-06T04:59:07.940Z,21.77
2017-12-06T05:01:34.374Z,20.27
2017-12-06T05:04:01.526Z,18.67
2017-12-06T05:06:27.858Z,20.37
2017-12-06T05:08:54.230Z,24.40
2017-12-06T05:11:20.625Z,39.63
2017-12-06T05:13:47.059Z,35.90
2017-12-06T05:16:13.493Z,22.40
2017-12-06T05:18:39.940Z,20.37
2017-12-06T05:21:07.196Z,15.03
2017-12-06T05:23:33.617Z,25.37
2017-12-06T05:25:59.939Z,13.90
2017-12-06T05:28:26.387Z,12.17
2017-12-06T05:30:52.818Z,9.20
2017-12-06T05:33:19.253Z,11.33
2017-12-06T05:35:45.722Z,12.33
2017-12-06T05:38:12.837Z,20.00
2017-12-06T05:40:39.276Z,11.10
2017-12-06T05:43:05.707Z,10.27
2017-12-06T05:45:32.101Z,12.97
2017-12-06T05:47:58.595Z,10.17
2017-12-06T05:50:24.965Z,15.23
2017-12-06T05:52:51.278Z,16.13
2017-12-06T05:55:18.467Z,12.10
2017-12-06T05:57:44.931Z,12.53
2017-12-06T06:00:11.298Z,17.63
2017-12-06T06:02:37.696Z,27.13
2017-12-06T06:05:04.133Z,55.80
2017-12-06T06:07:30.501Z,14.13
2017-12-06T06:09:56.897Z,8.30
2017-12-06T06:12:24.151Z,11.03
2017-12-06T06:14:50.504Z,11.73
2017-12-06T06:17:16.929Z,17.90
2017-12-06T06:19:43.967Z,41.37
2017-12-06T06:22:10.401Z,42.00
2017-12-06T06:24:37.249Z,71.57
2017-12-06T06:27:04.192Z,91.73
2017-12-06T06:29:30.625Z,60.03
2017-12-06T06:31:57.061Z,54.50
2017-12-06T06:34:23.597Z,49.97
2017-12-06T06:36:50.441Z,63.37
2017-12-06T06:39:16.774Z,93.90
2017-12-06T06:41:43.236Z,85.97
2017-12-06T06:44:09.643Z,50.93
2017-12-06T06:46:35.975Z,56.07
2017-12-06T06:49:02.418Z,35.03
2017-12-06T06:51:28.787Z,26.67
2017-12-06T06:53:55.175Z,33.97
2017-12-06T06:56:21.716Z,16.33
2017-12-06T06:58:48.037Z,58.13
2017-12-06T07:01:14.389Z,44.63
2017-12-06T07:03:40.767Z,52.13
2017-12-06T07:06:07.218Z,45.33
2017-12-06T07:08:33.681Z,31.17
2017-12-06T07:11:00.119Z,18.00
2017-12-06T07:13:26.548Z,25.60
2017-12-06T07:15:52.986Z,20.07
2017-12-06T07:18:19.382Z,20.60
2017-12-06T07:20:45.751Z,15.23
2017-12-06T07:23:12.596Z,25.40
2017-12-06T07:25:38.927Z,31.13
2017-12-06T07:28:05.314Z,50.23
2017-12-06T07:30:31.797Z,38.83
2017-12-06T07:32:58.232Z,113.87
2017-12-06T07:35:24.768Z,130.47
2017-12-06T07:37:51.221Z,26.93
2017-12-06T07:40:17.637Z,37.23
2017-12-06T07:42:43.974Z,13.03
2017-12-06T07:45:10.382Z,13.67
2017-12-06T07:47:36.839Z,8.20
2017-12-06T07:50:03.273Z,10.60
2017-12-06T07:52:29.606Z,10.30
2017-12-06T07:54:55.941Z,7.47
2017-12-06T07:57:22.269Z,6.87
2017-12-06T07:59:48.687Z,6.07
2017-12-06T08:02:15.140Z,17.33
2017-12-06T08:04:41.880Z,7.00
2017-12-06T08:07:08.213Z,7.00
2017-12-06T08:09:34.646Z,6.50
2017-12-06T08:12:01.116Z,6.17
2017-12-06T08:14:27.487Z,7.73
2017-12-06T08:16:54.365Z,8.27
2017-12-06T08:19:20.698Z,11.00
2017-12-06T08:21:47.127Z,6.83
2017-12-06T08:24:13.499Z,60.33
2017-12-06T08:26:39.973Z,7.10
2017-12-06T08:29:06.415Z,6.57
2017-12-06T08:31:32.865Z,6.73
2017-12-06T08:33:59.235Z,6.20
2017-12-06T08:36:26.047Z,6.97
2017-12-06T08:38:52.393Z,5.80
2017-12-06T08:41:18.913Z,7.27
2017-12-06T08:43:45.278Z,7.13
2017-12-06T08:46:11.678Z,8.47
2017-12-06T08:48:38.017Z,8.67
2017-12-06T08:51:04.444Z,5.77
2017-12-06T08:53:30.879Z,5.40
2017-12-06T08:55:57.521Z,5.50
2017-12-06T08:58:23.891Z,5.33
2017-12-06T09:00:50.286Z,4.43
2017-12-06T09:03:17.027Z,6.47
2017-12-06T09:05:43.568Z,5.30
2017-12-06T09:08:09.999Z,5.53
2017-12-06T09:10:36.639Z,11.87
2017-12-06T09:13:03.070Z,6.30
2017-12-06T09:15:29.545Z,6.20
2017-12-06T09:17:56.042Z,5.83
2017-12-06T09:20:22.414Z,4.80
2017-12-06T09:22:48.740Z,5.60
2017-12-06T09:25:15.244Z,3.27
2017-12-06T09:27:41.679Z,4.33
2017-12-06T09:30:08.115Z,3.67
2017-12-06T09:32:34.854Z,6.13
2017-12-06T09:35:01.327Z,6.40
2017-12-06T09:37:27.793Z,5.13
2017-12-06T09:39:54.235Z,13.13
2017-12-06T09:42:20.632Z,4.13
2017-12-06T09:44:47.518Z,3.97
2017-12-06T09:47:13.962Z,4.23
2017-12-06T09:49:40.408Z,3.43
2017-12-06T09:52:06.843Z,4.50
2017-12-06T09:54:33.278Z,3.43
2017-12-06T09:56:59.815Z,2.70
2017-12-06T09:59:26.659Z,4.40
2017-12-06T10:01:53.165Z,3.60
2017-12-06T10:04:19.606Z,4.00
2017-12-06T10:06:46.210Z,4.20
2017-12-06T10:09:12.542Z,4.87
2017-12-06T10:11:38.964Z,3.70
2017-12-06T10:14:05.286Z,4.07
2017-12-06T10:16:31.804Z,3.73
2017-12-06T10:18:58.442Z,4.13
2017-12-06T10:21:24.876Z,4.30
2017-12-06T10:23:51.346Z,3.20
2017-12-06T10:26:17.848Z,4.20
2017-12-06T10:28:44.285Z,4.17
2017-12-06T10:31:10.928Z,4.27
2017-12-06T10:33:37.277Z,3.93
2017-12-06T10:36:03.690Z,3.90
2017-12-06T10:38:30.534Z,4.30
2017-12-06T10:40:56.911Z,5.60
2017-12-06T10:43:23.338Z,4.30
2017-12-06T10:45:50.144Z,5.97
2017-12-06T10:48:16.681Z,4.30
2017-12-06T10:50:43.116Z,5.93
2017-12-06T10:53:09.960Z,7.07
2017-12-06T10:55:36.759Z,6.30
2017-12-06T10:58:03.990Z,4.70
2017-12-06T11:00:30.514Z,6.40
2017-12-06T11:02:57.015Z,4.80
2017-12-06T11:05:23.462Z,4.73
2017-12-06T11:07:49.897Z,5.43
2017-12-06T11:10:16.742Z,5.27
2017-12-06T11:12:43.176Z,4.40
2017-12-06T11:15:09.652Z,4.77
2017-12-06T11:17:36.046Z,4.53
2017-12-06T11:20:02.685Z,5.70
2017-12-06T11:22:29.123Z,4.77
2017-12-06T11:24:55.486Z,3.70
2017-12-06T11:27:21.989Z,4.87
2017-12-06T11:29:48.429Z,5.67
2017-12-06T11:32:15.167Z,5.27
2017-12-06T11:34:41.837Z,4.20
2017-12-06T11:37:08.329Z,5.70
2017-12-06T11:39:34.776Z,5.43
2017-12-06T11:42:01.518Z,5.10
2017-12-06T11:44:27.951Z,5.70
2017-12-06T11:46:54.489Z,5.70
2017-12-06T11:56:55.319Z,4.87
2017-12-06T11:59:21.817Z,5.13
2017-12-06T12:01:48.354Z,5.73
2017-12-06T12:04:14.892Z,7.53
2017-12-06T12:06:41.362Z,5.40
2017-12-06T12:09:07.725Z,6.23
2017-12-06T12:11:34.934Z,5.07
2017-12-06T12:14:01.346Z,6.30
2017-12-06T12:16:27.888Z,7.50
2017-12-06T12:18:54.624Z,7.30
2017-12-06T12:21:20.999Z,8.60
2017-12-06T12:23:47.493Z,5.87
2017-12-06T12:26:14.440Z,6.40
2017-12-06T12:28:40.874Z,12.63
2017-12-06T12:31:07.309Z,8.70
2017-12-06T12:33:34.154Z,7.13
2017-12-06T12:36:00.589Z,7.20
2017-12-06T12:38:27.024Z,7.03
2017-12-06T12:40:53.457Z,6.27
2017-12-06T12:43:20.301Z,6.63
2017-12-06T12:45:46.883Z,7.43
2017-12-06T12:48:13.273Z,8.27
2017-12-06T12:50:39.809Z,7.77
2017-12-06T12:53:06.179Z,11.37
2017-12-06T12:55:32.650Z,10.10
2017-12-06T12:57:59.169Z,9.90
2017-12-06T13:00:25.634Z,24.97
2017-12-06T13:02:51.982Z,6.80
2017-12-06T13:05:18.626Z,17.33
2017-12-06T13:07:45.559Z,16.10
2017-12-06T13:10:12.002Z,16.07
2017-12-06T13:12:38.437Z,8.50
2017-12-06T13:15:04.871Z,9.60
2017-12-06T13:17:31.307Z,9.23
2017-12-06T13:19:58.150Z,8.47
2017-12-06T13:22:24.585Z,8.93
2017-12-06T13:24:51.019Z,9.50
2017-12-06T13:27:17.405Z,7.53
2017-12-06T13:29:43.888Z,12.53
2017-12-06T13:32:10.281Z,12.47
2017-12-06T13:34:36.655Z,14.10
2017-12-06T13:37:03.203Z,10.40
2017-12-06T13:39:29.627Z,8.27
2017-12-06T13:41:56.062Z,12.60
2017-12-06T13:44:22.497Z,14.10
2017-12-06T13:46:49.032Z,9.23
2017-12-06T13:49:15.466Z,11.87
2017-12-06T13:51:41.901Z,9.73
2017-12-06T13:54:08.336Z,13.67
2017-12-06T13:56:34.820Z,10.80
2017-12-06T13:59:01.718Z,7.17
2017-12-06T14:01:28.048Z,12.83
2017-12-06T14:03:54.486Z,82.40
2017-12-06T14:06:21.125Z,11.20
2017-12-06T14:08:47.558Z,13.30
2017-12-06T14:11:13.930Z,16.20
2017-12-06T14:13:40.324Z,10.03
2017-12-06T14:16:07.164Z,7.17
2017-12-06T14:18:33.603Z,9.03
2017-12-06T14:21:00.043Z,7.50
2017-12-06T14:23:26.474Z,10.80
2017-12-06T14:25:53.215Z,11.40
2017-12-06T14:28:19.625Z,6.20
2017-12-06T14:30:45.983Z,9.27
2017-12-06T14:33:12.662Z,10.67
2017-12-06T14:35:39.157Z,10.37
2017-12-06T14:38:05.529Z,9.33
2017-12-06T14:40:32.598Z,47.03
2017-12-06T14:42:59.033Z,10.07
2017-12-06T14:45:25.468Z,11.27
2017-12-06T14:47:51.903Z,8.83
2017-12-06T14:50:18.336Z,9.03
2017-12-06T14:52:44.805Z,19.60
2017-12-06T14:55:11.359Z,12.60
2017-12-06T14:57:37.668Z,6.90
2017-12-06T15:00:04.109Z,16.10
2017-12-06T15:02:30.591Z,9.43
2017-12-06T15:04:58.070Z,12.93
2017-12-06T15:07:24.506Z,24.47
2017-12-06T15:09:51.257Z,22.20
2017-12-06T15:12:17.680Z,9.53
2017-12-06T15:14:44.074Z,8.20
2017-12-06T15:17:10.447Z,9.00
2017-12-06T15:19:36.816Z,9.67
2017-12-06T15:22:03.317Z,13.23
2017-12-06T15:24:29.751Z,11.40
2017-12-06T15:26:56.187Z,8.03
2017-12-06T15:29:22.518Z,8.50
2017-12-06T15:31:49.055Z,15.97
2017-12-06T15:34:15.490Z,7.53
2017-12-06T15:36:41.925Z,8.73
2017-12-06T15:39:08.246Z,8.77
2017-12-06T15:41:34.616Z,7.60
2017-12-06T15:44:00.980Z,7.70
2017-12-06T15:46:27.289Z,8.13
2017-12-06T15:48:53.733Z,7.37
2017-12-06T15:51:20.056Z,9.77
2017-12-06T15:53:46.484Z,6.90
2017-12-06T15:56:13.400Z,5.67
2017-12-06T15:58:40.349Z,6.17
2017-12-06T16:01:06.828Z,6.03
2017-12-06T16:03:33.215Z,6.37
2017-12-06T16:05:59.652Z,4.47
2017-12-06T16:08:26.085Z,6.57
2017-12-06T16:10:52.564Z,26.63
2017-12-06T16:13:18.936Z,23.70
2017-12-06T16:15:45.392Z,6.73
2017-12-06T16:18:12.031Z,10.13
2017-12-06T16:20:38.388Z,8.20
2017-12-06T16:23:04.729Z,9.07
2017-12-06T16:25:31.095Z,11.50
2017-12-06T16:27:57.487Z,8.27
2017-12-06T16:30:23.826Z,8.07
2017-12-06T16:32:50.231Z,7.53
2017-12-06T16:35:16.560Z,10.43
2017-12-06T16:37:42.995Z,6.83
2017-12-06T16:40:09.362Z,7.80
2017-12-06T16:42:35.862Z,6.80
2017-12-06T16:45:02.297Z,11.40
2017-12-06T16:47:28.747Z,15.27
2017-12-06T16:49:55.168Z,9.57
2017-12-06T16:52:21.601Z,10.07
2017-12-06T16:54:47.932Z,9.10
2017-12-06T16:57:14.368Z,6.57
2017-12-06T16:59:40.784Z,7.87
2017-12-06T17:02:07.261Z,7.60
2017-12-06T17:04:34.490Z,7.77
2017-12-06T17:07:00.929Z,6.57
2017-12-06T17:09:27.288Z,7.30
2017-12-06T17:11:53.692Z,7.27
2017-12-06T17:14:20.126Z,8.43
2017-12-06T17:16:46.565Z,8.13
2017-12-06T17:19:12.995Z,7.23
2017-12-06T17:21:40.269Z,6.57
2017-12-06T17:24:06.683Z,5.93
2017-12-06T17:26:33.362Z,8.27
2017-12-06T17:29:00.065Z,6.17
2017-12-06T17:31:26.703Z,5.50
2017-12-06T17:33:53.245Z,6.00
2017-12-06T17:36:19.765Z,6.57
2017-12-06T17:38:46.948Z,6.63
2017-12-06T17:41:13.292Z,11.50
2017-12-06T17:43:39.638Z,8.70
2017-12-06T17:46:05.983Z,9.90
2017-12-06T17:48:32.359Z,7.73
2017-12-06T17:50:58.721Z,8.70
2017-12-06T17:53:25.127Z,8.37
2017-12-06T17:55:52.278Z,6.90
2017-12-06T17:58:18.714Z,8.97
2017-12-06T18:00:45.146Z,7.30
2017-12-06T18:03:11.582Z,7.27
2017-12-06T18:05:38.016Z,8.30
2017-12-06T18:08:04.472Z,11.50
2017-12-06T18:10:30.887Z,7.60
2017-12-06T18:12:58.140Z,8.03
2017-12-06T18:15:24.573Z,6.50
2017-12-06T18:17:51.008Z,9.60
2017-12-06T18:20:17.544Z,8.63
2017-12-06T18:22:43.998Z,9.10
2017-12-06T18:25:10.517Z,8.07
2017-12-06T18:27:36.951Z,6.70
2017-12-06T18:30:03.999Z,6.17
2017-12-06T18:32:30.332Z,4.97
2017-12-06T18:34:56.788Z,6.47
2017-12-06T18:37:23.222Z,8.47
2017-12-06T18:39:49.636Z,7.10
2017-12-06T18:42:15.968Z,17.10
2017-12-06T18:44:42.408Z,8.27
2017-12-06T18:47:09.656Z,7.33
2017-12-06T18:49:35.993Z,8.83
2017-12-06T18:52:02.423Z,7.70
2017-12-06T18:54:28.857Z,8.43
2017-12-06T18:56:55.294Z,7.13
2017-12-06T18:59:21.673Z,8.80
2017-12-06T19:01:48.058Z,7.17
2017-12-06T19:04:15.313Z,7.50
2017-12-06T19:06:41.746Z,7.47
2017-12-06T19:09:08.182Z,7.27
2017-12-06T19:11:34.681Z,6.77
2017-12-06T19:14:01.173Z,7.53
2017-12-06T19:16:27.489Z,7.73
2017-12-06T19:18:53.925Z,8.87
2017-12-06T19:21:21.074Z,8.60
2017-12-06T19:23:47.506Z,9.40
2017-12-06T19:26:13.942Z,8.10
2017-12-06T19:28:40.375Z,9.03
2017-12-06T19:31:06.766Z,13.60
2017-12-06T19:33:33.069Z,10.20
2017-12-06T19:35:59.473Z,5.00
2017-12-06T19:38:26.730Z,6.63
2017-12-06T19:40:53.162Z,9.47
2017-12-06T19:43:19.596Z,5.90
2017-12-06T19:45:46.032Z,9.67
2017-12-06T19:48:12.467Z,7.40
2017-12-06T19:50:38.943Z,14.00
2017-12-06T19:53:05.266Z,7.00
2017-12-06T19:55:32.487Z,8.60
2017-12-06T19:57:58.921Z,9.07
2017-12-06T20:00:25.642Z,9.40
2017-12-06T20:02:52.199Z,9.90
2017-12-06T20:05:18.634Z,5.77
2017-12-06T20:07:45.070Z,7.60
2017-12-06T20:10:11.604Z,6.67
2017-12-06T20:12:38.760Z,11.37
2017-12-06T20:15:05.125Z,6.90
2017-12-06T20:17:31.523Z,9.00
2017-12-06T20:19:57.957Z,8.20
2017-12-06T20:22:24.393Z,9.17
2017-12-06T20:24:50.826Z,7.90
2017-12-06T20:27:17.262Z,8.33
2017-12-06T20:29:44.519Z,7.17
2017-12-06T20:32:10.952Z,9.50
2017-12-06T20:34:37.485Z,6.97
2017-12-06T20:37:03.921Z,8.70
2017-12-06T20:39:30.458Z,9.70
2017-12-06T20:41:56.900Z,8.37
2017-12-06T20:44:23.258Z,8.60
2017-12-06T20:46:50.478Z,7.77
2017-12-06T20:49:16.848Z,8.70
2017-12-06T20:51:43.275Z,7.23
2017-12-06T20:54:09.680Z,6.80
2017-12-06T20:56:36.114Z,9.27
2017-12-06T20:59:02.549Z,9.00
2017-12-06T21:01:28.984Z,9.17
2017-12-06T21:03:56.115Z,7.07
2017-12-06T21:06:22.569Z,6.93
2017-12-06T21:08:49.004Z,8.10
2017-12-06T21:11:15.438Z,7.97
2017-12-06T21:13:41.872Z,8.30
2017-12-06T21:16:08.308Z,7.27
2017-12-06T21:18:34.744Z,7.50
2017-12-06T21:21:01.893Z,7.13
2017-12-06T21:23:28.330Z,8.40
2017-12-06T21:25:54.665Z,7.00
2017-12-06T21:28:21.097Z,9.93
2017-12-06T21:30:47.465Z,6.60
2017-12-06T21:33:13.820Z,9.33
2017-12-06T21:35:40.287Z,9.80
2017-12-06T21:38:07.450Z,7.67
2017-12-06T21:40:33.818Z,11.23
2017-12-06T21:43:00.138Z,12.83
2017-12-06T21:45:26.548Z,9.70
2017-12-06T21:47:53.104Z,10.63
2017-12-06T21:50:19.519Z,9.40
2017-12-06T21:52:45.954Z,10.43
2017-12-06T21:55:13.103Z,9.60
2017-12-06T21:57:39.536Z,9.40
2017-12-06T22:00:06.003Z,8.00
2017-12-06T22:02:32.406Z,9.10
2017-12-06T22:04:58.850Z,10.90
2017-12-06T22:07:25.276Z,8.03
2017-12-06T22:09:51.642Z,9.90
2017-12-06T22:12:18.833Z,8.50
2017-12-06T22:14:45.296Z,9.70
2017-12-06T22:17:11.731Z,10.97
2017-12-06T22:19:38.165Z,8.97
2017-12-06T22:22:04.599Z,10.13
2017-12-06T22:24:31.029Z,10.70
2017-12-06T22:26:57.474Z,10.97
2017-12-06T22:29:24.518Z,11.93
2017-12-06T22:31:50.956Z,11.13
2017-12-06T22:34:17.321Z,11.47
2017-12-06T22:36:43.654Z,11.53
2017-12-06T22:39:10.051Z,11.37
2017-12-06T22:41:36.433Z,9.90
2017-12-06T22:44:02.818Z,11.17
2017-12-06T22:46:29.969Z,11.87
2017-12-06T22:48:56.425Z,13.47
2017-12-06T22:51:22.838Z,12.10
2017-12-06T22:53:49.274Z,10.50
2017-12-06T22:56:15.707Z,14.13
2017-12-06T22:58:42.143Z,10.50
2017-12-06T23:01:08.577Z,10.13
2017-12-06T23:03:35.725Z,12.30
2017-12-06T23:06:02.165Z,10.60
2017-12-06T23:08:28.598Z,9.80
2017-12-06T23:10:55.058Z,9.93
2017-12-06T23:13:21.443Z,10.40
2017-12-06T23:15:47.885Z,9.00
2017-12-06T23:18:14.335Z,11.63
2017-12-06T23:20:41.589Z,11.17
2017-12-06T23:23:08.024Z,11.53
2017-12-06T23:25:34.428Z,10.43
2017-12-06T23:28:00.895Z,18.23
2017-12-06T23:30:27.328Z,12.33
2017-12-06T23:32:53.773Z,14.23
2017-12-06T23:35:20.197Z,16.37
2017-12-06T23:37:47.281Z,12.20
2017-12-06T23:40:13.654Z,11.63
2017-12-06T23:42:40.012Z,12.33
2017-12-06T23:45:06.447Z,10.40
2017-12-06T23:47:32.881Z,13.40
2017-12-06T23:49:59.296Z,11.10
2017-12-06T23:52:25.648Z,11.70
2017-12-06T23:54:53.106Z,11.87
2017-12-06T23:57:19.542Z,12.90
2017-12-06T23:59:45.977Z,12.27
